sensor_id;sensor_type;location;lat;lon;timestamp;pressure;altitude;pressure_sealevel;temperature;humidity
20624;BME280;10471;42.736;23.346;2023-05-09T00:01:59;95841.19;;;12.62;100.00
20624;BME280;10471;42.736;23.346;2023-05-09T00:04:24;95841.72;;;12.59;100.00
20624;BME280;10471;42.736;23.346;2023-05-09T00:06:50;95843.06;;;12.56;100.00
20624;BME280;10471;42.736;23.346;2023-05-09T00:09:16;95834.84;;;12.58;100.00
20624;BME280;10471;42.736;23.346;2023-05-09T00:11:41;95838.09;;;12.50;100.00
20624;BME280;10471;42.736;23.346;2023-05-09T00:14:07;95838.13;;;12.45;100.00
20624;BME280;10471;42.736;23.346;2023-05-09T00:16:32;95839.94;;;12.49;100.00
20624;BME280;10471;42.736;23.346;2023-05-09T00:18:58;95831.97;;;12.54;100.00
20624;BME280;10471;42.736;23.346;2023-05-09T00:21:24;95829.09;;;12.51;100.00
20624;BME280;10471;42.736;23.346;2023-05-09T00:23:50;95826.13;;;12.57;100.00
20624;BME280;10471;42.736;23.346;2023-05-09T00:26:15;95832.16;;;12.63;100.00
20624;BME280;10471;42.736;23.346;2023-05-09T00:28:41;95820.25;;;12.65;100.00
20624;BME280;10471;42.736;23.346;2023-05-09T00:31:06;95826.34;;;12.66;100.00
20624;BME280;10471;42.736;23.346;2023-05-09T00:33:32;95813.59;;;12.68;100.00
20624;BME280;10471;42.736;23.346;2023-05-09T00:35:57;95815.19;;;12.69;100.00
20624;BME280;10471;42.736;23.346;2023-05-09T00:38:23;95817.34;;;12.67;100.00
20624;BME280;10471;42.736;23.346;2023-05-09T00:40:48;95822.09;;;12.65;100.00
20624;BME280;10471;42.736;23.346;2023-05-09T00:43:14;95812.06;;;12.67;100.00
20624;BME280;10471;42.736;23.346;2023-05-09T00:45:41;95810.19;;;12.67;100.00
20624;BME280;10471;42.736;23.346;2023-05-09T00:48:07;95817.63;;;12.60;100.00
20624;BME280;10471;42.736;23.346;2023-05-09T00:50:32;95814.81;;;12.52;100.00
20624;BME280;10471;42.736;23.346;2023-05-09T00:52:58;95816.63;;;12.56;100.00
20624;BME280;10471;42.736;23.346;2023-05-09T00:55:23;95805.22;;;12.61;100.00
20624;BME280;10471;42.736;23.346;2023-05-09T00:57:49;95815.78;;;12.61;100.00
20624;BME280;10471;42.736;23.346;2023-05-09T01:00:14;95818.94;;;12.63;100.00
20624;BME280;10471;42.736;23.346;2023-05-09T01:02:46;95805.97;;;12.66;100.00
20624;BME280;10471;42.736;23.346;2023-05-09T01:05:12;95813.59;;;12.68;100.00
20624;BME280;10471;42.736;23.346;2023-05-09T01:07:56;95809.66;;;12.70;100.00
20624;BME280;10471;42.736;23.346;2023-05-09T01:10:38;95813.59;;;12.73;100.00
20624;BME280;10471;42.736;23.346;2023-05-09T01:15:56;95808.25;;;12.78;100.00
20624;BME280;10471;42.736;23.346;2023-05-09T01:18:33;95810.91;;;12.78;100.00
20624;BME280;10471;42.736;23.346;2023-05-09T01:21:05;95809.81;;;12.79;100.00
20624;BME280;10471;42.736;23.346;2023-05-09T01:26:25;95819.84;;;12.82;100.00
20624;BME280;10471;42.736;23.346;2023-05-09T01:29:29;95823.31;;;12.77;100.00
20624;BME280;10471;42.736;23.346;2023-05-09T01:31:57;95817.50;;;12.80;100.00
20624;BME280;10471;42.736;23.346;2023-05-09T01:34:25;95821.94;;;12.85;100.00
20624;BME280;10471;42.736;23.346;2023-05-09T01:36:55;95817.72;;;12.84;100.00
20624;BME280;10471;42.736;23.346;2023-05-09T01:39:23;95816.16;;;12.83;100.00
20624;BME280;10471;42.736;23.346;2023-05-09T01:41:52;95819.84;;;12.87;100.00
20624;BME280;10471;42.736;23.346;2023-05-09T01:44:20;95825.63;;;12.89;100.00
20624;BME280;10471;42.736;23.346;2023-05-09T01:46:46;95822.72;;;12.90;100.00
20624;BME280;10471;42.736;23.346;2023-05-09T01:49:13;95830.38;;;12.92;100.00
20624;BME280;10471;42.736;23.346;2023-05-09T01:51:41;95831.16;;;12.92;100.00
20624;BME280;10471;42.736;23.346;2023-05-09T01:54:09;95831.16;;;12.92;100.00
20624;BME280;10471;42.736;23.346;2023-05-09T01:56:36;95834.38;;;12.89;100.00
20624;BME280;10471;42.736;23.346;2023-05-09T01:59:05;95836.75;;;12.86;100.00
20624;BME280;10471;42.736;23.346;2023-05-09T02:01:32;95835.97;;;12.85;100.00
20624;BME280;10471;42.736;23.346;2023-05-09T02:03:58;95831.00;;;12.74;100.00
20624;BME280;10471;42.736;23.346;2023-05-09T02:06:24;95831.78;;;12.79;100.00
20624;BME280;10471;42.736;23.346;2023-05-09T02:08:50;95829.97;;;12.75;100.00
20624;BME280;10471;42.736;23.346;2023-05-09T02:11:16;95832.31;;;12.76;100.00
20624;BME280;10471;42.736;23.346;2023-05-09T02:13:41;95832.59;;;12.75;100.00
20624;BME280;10471;42.736;23.346;2023-05-09T02:16:07;95827.84;;;12.77;100.00
20624;BME280;10471;42.736;23.346;2023-05-09T02:18:33;95827.84;;;12.77;100.00
20624;BME280;10471;42.736;23.346;2023-05-09T02:21:00;95834.91;;;12.81;100.00
20624;BME280;10471;42.736;23.346;2023-05-09T02:23:26;95820.63;;;12.82;100.00
20624;BME280;10471;42.736;23.346;2023-05-09T02:25:51;95824.09;;;12.83;100.00
20624;BME280;10471;42.736;23.346;2023-05-09T02:28:20;95828.28;;;12.84;100.00
20624;BME280;10471;42.736;23.346;2023-05-09T02:30:48;95830.69;;;12.85;100.00
20624;BME280;10471;42.736;23.346;2023-05-09T02:33:14;95836.50;;;12.87;100.00
20624;BME280;10471;42.736;23.346;2023-05-09T02:35:43;95829.88;;;12.85;100.00
20624;BME280;10471;42.736;23.346;2023-05-09T02:38:08;95835.16;;;12.85;100.00
20624;BME280;10471;42.736;23.346;2023-05-09T02:40:34;95832.25;;;12.86;100.00
20624;BME280;10471;42.736;23.346;2023-05-09T02:43:00;95837.03;;;12.84;100.00
20624;BME280;10471;42.736;23.346;2023-05-09T02:45:26;95832.50;;;12.85;100.00
20624;BME280;10471;42.736;23.346;2023-05-09T02:47:51;95831.47;;;12.86;100.00
20624;BME280;10471;42.736;23.346;2023-05-09T02:50:17;95829.88;;;12.85;100.00
20624;BME280;10471;42.736;23.346;2023-05-09T02:52:42;95834.72;;;12.78;100.00
20624;BME280;10471;42.736;23.346;2023-05-09T02:55:08;95842.66;;;12.78;100.00
20624;BME280;10471;42.736;23.346;2023-05-09T02:57:33;95832.06;;;12.78;100.00
20624;BME280;10471;42.736;23.346;2023-05-09T02:59:59;95839.44;;;12.81;100.00
20624;BME280;10471;42.736;23.346;2023-05-09T03:02:25;95850.28;;;12.79;100.00
20624;BME280;10471;42.736;23.346;2023-05-09T03:04:50;95848.44;;;12.80;100.00
20624;BME280;10471;42.736;23.346;2023-05-09T03:07:16;95857.41;;;12.79;100.00
20624;BME280;10471;42.736;23.346;2023-05-09T03:09:41;95854.78;;;12.79;100.00
20624;BME280;10471;42.736;23.346;2023-05-09T03:12:06;95866.44;;;12.78;100.00
20624;BME280;10471;42.736;23.346;2023-05-09T03:14:32;95857.41;;;12.79;100.00
20624;BME280;10471;42.736;23.346;2023-05-09T03:16:57;95866.44;;;12.78;100.00
20624;BME280;10471;42.736;23.346;2023-05-09T03:19:23;95875.44;;;12.77;100.00
20624;BME280;10471;42.736;23.346;2023-05-09T03:21:48;95866.94;;;12.80;100.00
20624;BME280;10471;42.736;23.346;2023-05-09T03:24:13;95873.25;;;12.84;100.00
20624;BME280;10471;42.736;23.346;2023-05-09T03:26:39;95880.69;;;12.87;100.00
20624;BME280;10471;42.736;23.346;2023-05-09T03:29:04;95887.28;;;12.89;100.00
20624;BME280;10471;42.736;23.346;2023-05-09T03:31:30;95879.34;;;12.89;100.00
20624;BME280;10471;42.736;23.346;2023-05-09T03:33:56;95883.84;;;12.84;100.00
20624;BME280;10471;42.736;23.346;2023-05-09T03:36:21;95886.47;;;12.84;100.00
20624;BME280;10471;42.736;23.346;2023-05-09T03:38:47;95884.63;;;12.89;100.00
20624;BME280;10471;42.736;23.346;2023-05-09T03:41:15;95880.38;;;12.93;100.00
20624;BME280;10471;42.736;23.346;2023-05-09T03:43:40;95878.72;;;12.97;100.00
20624;BME280;10471;42.736;23.346;2023-05-09T03:46:06;95884.84;;;12.98;100.00
20624;BME280;10471;42.736;23.346;2023-05-09T03:48:31;95877.72;;;12.93;100.00
20624;BME280;10471;42.736;23.346;2023-05-09T03:50:57;95876.94;;;12.93;100.00
20624;BME280;10471;42.736;23.346;2023-05-09T03:53:22;95878.00;;;12.92;100.00
20624;BME280;10471;42.736;23.346;2023-05-09T03:55:48;95876.97;;;12.88;100.00
20624;BME280;10471;42.736;23.346;2023-05-09T03:58:13;95877.28;;;12.76;100.00
20624;BME280;10471;42.736;23.346;2023-05-09T04:00:39;95883.91;;;12.74;100.00
20624;BME280;10471;42.736;23.346;2023-05-09T04:03:05;95882.84;;;12.75;100.00
20624;BME280;10471;42.736;23.346;2023-05-09T04:05:31;95889.97;;;12.79;100.00
20624;BME280;10471;42.736;23.346;2023-05-09T04:07:58;95886.50;;;12.79;100.00
20624;BME280;10471;42.736;23.346;2023-05-09T04:10:23;95889.72;;;12.76;100.00
20624;BME280;10471;42.736;23.346;2023-05-09T04:12:49;95897.88;;;12.84;100.00
20624;BME280;10471;42.736;23.346;2023-05-09T04:15:15;95896.81;;;12.90;100.00
20624;BME280;10471;42.736;23.346;2023-05-09T04:17:40;95890.63;;;13.00;100.00
20624;BME280;10471;42.736;23.346;2023-05-09T04:20:06;95903.28;;;13.08;100.00
20624;BME280;10471;42.736;23.346;2023-05-09T04:22:32;95911.66;;;13.19;100.00
20624;BME280;10471;42.736;23.346;2023-05-09T04:24:58;95902.63;;;13.20;100.00
20624;BME280;10471;42.736;23.346;2023-05-09T04:27:23;95898.59;;;13.28;100.00
20624;BME280;10471;42.736;23.346;2023-05-09T04:29:48;95901.13;;;13.43;100.00
20624;BME280;10471;42.736;23.346;2023-05-09T04:32:14;95900.44;;;13.56;100.00
20624;BME280;10471;42.736;23.346;2023-05-09T04:34:39;95908.56;;;13.64;100.00
20624;BME280;10471;42.736;23.346;2023-05-09T04:37:05;95898.94;;;13.73;100.00
20624;BME280;10471;42.736;23.346;2023-05-09T04:39:30;95897.25;;;13.82;100.00
20624;BME280;10471;42.736;23.346;2023-05-09T04:41:56;95900.88;;;13.91;100.00
20624;BME280;10471;42.736;23.346;2023-05-09T04:44:22;95899.47;;;13.98;100.00
20624;BME280;10471;42.736;23.346;2023-05-09T04:46:49;95904.41;;;14.05;100.00
20624;BME280;10471;42.736;23.346;2023-05-09T04:49:14;95910.75;;;14.09;100.00
20624;BME280;10471;42.736;23.346;2023-05-09T04:51:40;95910.19;;;14.12;100.00
20624;BME280;10471;42.736;23.346;2023-05-09T04:54:05;95904.09;;;14.11;100.00
20624;BME280;10471;42.736;23.346;2023-05-09T04:56:31;95911.78;;;14.13;100.00
20624;BME280;10471;42.736;23.346;2023-05-09T04:58:56;95914.91;;;14.15;100.00
20624;BME280;10471;42.736;23.346;2023-05-09T05:01:21;95913.56;;;14.17;100.00
20624;BME280;10471;42.736;23.346;2023-05-09T05:03:47;95907.91;;;14.24;100.00
20624;BME280;10471;42.736;23.346;2023-05-09T05:06:12;95909.44;;;14.30;100.00
20624;BME280;10471;42.736;23.346;2023-05-09T05:08:37;95906.44;;;14.36;100.00
20624;BME280;10471;42.736;23.346;2023-05-09T05:11:03;95907.75;;;14.39;100.00
20624;BME280;10471;42.736;23.346;2023-05-09T05:13:28;95903.66;;;14.46;100.00
20624;BME280;10471;42.736;23.346;2023-05-09T05:15:54;95903.22;;;14.57;100.00
20624;BME280;10471;42.736;23.346;2023-05-09T05:18:20;95901.50;;;14.66;100.00
20624;BME280;10471;42.736;23.346;2023-05-09T05:20:46;95910.97;;;14.72;100.00
20624;BME280;10471;42.736;23.346;2023-05-09T05:23:11;95908.69;;;14.84;100.00
20624;BME280;10471;42.736;23.346;2023-05-09T05:25:37;95903.84;;;14.86;100.00
20624;BME280;10471;42.736;23.346;2023-05-09T05:28:02;95908.09;;;14.87;100.00
20624;BME280;10471;42.736;23.346;2023-05-09T05:30:28;95910.44;;;14.89;100.00
20624;BME280;10471;42.736;23.346;2023-05-09T05:32:53;95913.84;;;14.94;100.00
20624;BME280;10471;42.736;23.346;2023-05-09T05:35:18;95914.91;;;14.93;100.00
20624;BME280;10471;42.736;23.346;2023-05-09T05:37:47;95914.84;;;14.98;100.00
20624;BME280;10471;42.736;23.346;2023-05-09T05:40:12;95919.69;;;14.91;100.00
20624;BME280;10471;42.736;23.346;2023-05-09T05:42:38;95922.78;;;14.98;100.00
20624;BME280;10471;42.736;23.346;2023-05-09T05:45:03;95924.13;;;15.14;100.00
20624;BME280;10471;42.736;23.346;2023-05-09T05:47:33;95918.63;;;15.10;100.00
20624;BME280;10471;42.736;23.346;2023-05-09T05:50:00;95916.19;;;14.96;100.00
20624;BME280;10471;42.736;23.346;2023-05-09T05:52:25;95915.91;;;14.97;100.00
20624;BME280;10471;42.736;23.346;2023-05-09T05:54:54;95920.81;;;14.90;100.00
20624;BME280;10471;42.736;23.346;2023-05-09T05:57:19;95925.59;;;14.88;100.00
20624;BME280;10471;42.736;23.346;2023-05-09T05:59:49;95921.50;;;14.96;100.00
20624;BME280;10471;42.736;23.346;2023-05-09T06:02:16;95919.97;;;15.08;100.00
20624;BME280;10471;42.736;23.346;2023-05-09T06:04:42;95921.66;;;15.22;100.00
20624;BME280;10471;42.736;23.346;2023-05-09T06:07:07;95926.03;;;15.32;100.00
20624;BME280;10471;42.736;23.346;2023-05-09T06:09:33;95919.16;;;15.44;100.00
20624;BME280;10471;42.736;23.346;2023-05-09T06:11:59;95927.84;;;15.63;100.00
20624;BME280;10471;42.736;23.346;2023-05-09T06:14:24;95919.38;;;15.61;100.00
20624;BME280;10471;42.736;23.346;2023-05-09T06:16:49;95918.84;;;15.77;100.00
20624;BME280;10471;42.736;23.346;2023-05-09T06:19:16;95922.59;;;15.90;100.00
20624;BME280;10471;42.736;23.346;2023-05-09T06:21:41;95924.81;;;15.70;100.00
20624;BME280;10471;42.736;23.346;2023-05-09T06:24:07;95925.56;;;15.88;100.00
20624;BME280;10471;42.736;23.346;2023-05-09T06:26:32;95920.03;;;15.98;100.00
20624;BME280;10471;42.736;23.346;2023-05-09T06:28:58;95918.47;;;15.97;100.00
20624;BME280;10471;42.736;23.346;2023-05-09T06:31:23;95916.22;;;16.18;100.00
20624;BME280;10471;42.736;23.346;2023-05-09T06:33:48;95921.03;;;16.42;100.00
20624;BME280;10471;42.736;23.346;2023-05-09T06:36:14;95920.41;;;16.59;100.00
20624;BME280;10471;42.736;23.346;2023-05-09T06:38:40;95923.56;;;16.74;100.00
20624;BME280;10471;42.736;23.346;2023-05-09T06:41:05;95917.19;;;16.84;100.00
20624;BME280;10471;42.736;23.346;2023-05-09T06:43:30;95928.13;;;16.96;100.00
20624;BME280;10471;42.736;23.346;2023-05-09T06:45:56;95918.81;;;17.07;100.00
20624;BME280;10471;42.736;23.346;2023-05-09T06:48:21;95918.56;;;17.16;100.00
20624;BME280;10471;42.736;23.346;2023-05-09T06:50:48;95912.41;;;17.29;100.00
20624;BME280;10471;42.736;23.346;2023-05-09T06:53:14;95913.88;;;17.35;100.00
20624;BME280;10471;42.736;23.346;2023-05-09T06:55:39;95918.63;;;17.38;100.00
20624;BME280;10471;42.736;23.346;2023-05-09T06:58:05;95915.19;;;17.46;100.00
20624;BME280;10471;42.736;23.346;2023-05-09T07:00:30;95910.84;;;17.50;100.00
20624;BME280;10471;42.736;23.346;2023-05-09T07:02:56;95915.19;;;17.46;100.00
20624;BME280;10471;42.736;23.346;2023-05-09T07:05:21;95907.94;;;17.60;100.00
20624;BME280;10471;42.736;23.346;2023-05-09T07:07:47;95904.94;;;17.83;100.00
20624;BME280;10471;42.736;23.346;2023-05-09T07:10:12;95901.50;;;17.91;100.00
20624;BME280;10471;42.736;23.346;2023-05-09T07:12:37;95908.72;;;17.91;100.00
20624;BME280;10471;42.736;23.346;2023-05-09T07:15:03;95905.69;;;17.84;100.00
20624;BME280;10471;42.736;23.346;2023-05-09T07:17:30;95902.81;;;17.72;100.00
20624;BME280;10471;42.736;23.346;2023-05-09T07:19:55;95907.59;;;17.83;100.00
20624;BME280;10471;42.736;23.346;2023-05-09T07:22:21;95907.69;;;17.70;100.00
20624;BME280;10471;42.736;23.346;2023-05-09T07:24:46;95907.63;;;17.62;100.00
20624;BME280;10471;42.736;23.346;2023-05-09T07:27:12;95906.75;;;17.74;100.00
20624;BME280;10471;42.736;23.346;2023-05-09T07:29:37;95915.59;;;17.83;100.00
20624;BME280;10471;42.736;23.346;2023-05-09T07:32:03;95909.19;;;17.93;100.00
20624;BME280;10471;42.736;23.346;2023-05-09T07:34:28;95913.25;;;17.90;100.00
20624;BME280;10471;42.736;23.346;2023-05-09T07:36:53;95914.53;;;17.93;100.00
20624;BME280;10471;42.736;23.346;2023-05-09T07:39:19;95913.28;;;17.99;100.00
20624;BME280;10471;42.736;23.346;2023-05-09T07:41:44;95918.72;;;17.85;100.00
20624;BME280;10471;42.736;23.346;2023-05-09T07:44:10;95918.81;;;17.72;100.00
20624;BME280;10471;42.736;23.346;2023-05-09T07:46:35;95917.66;;;17.65;100.00
20624;BME280;10471;42.736;23.346;2023-05-09T07:49:06;95926.47;;;17.65;100.00
20624;BME280;10471;42.736;23.346;2023-05-09T07:51:31;95925.28;;;17.49;100.00
20624;BME280;10471;42.736;23.346;2023-05-09T07:53:57;95925.66;;;17.34;100.00
20624;BME280;10471;42.736;23.346;2023-05-09T07:56:22;95924.19;;;17.28;100.00
20624;BME280;10471;42.736;23.346;2023-05-09T07:58:48;95915.97;;;17.03;100.00
20624;BME280;10471;42.736;23.346;2023-05-09T08:01:13;95923.03;;;16.86;100.00
20624;BME280;10471;42.736;23.346;2023-05-09T08:03:39;95922.97;;;16.64;100.00
20624;BME280;10471;42.736;23.346;2023-05-09T08:06:05;95918.84;;;16.58;100.00
20624;BME280;10471;42.736;23.346;2023-05-09T08:08:31;95922.44;;;16.40;100.00
20624;BME280;10471;42.736;23.346;2023-05-09T08:10:56;95916.59;;;16.25;100.00
20624;BME280;10471;42.736;23.346;2023-05-09T08:13:21;95916.09;;;16.23;100.00
20624;BME280;10471;42.736;23.346;2023-05-09T08:15:47;95924.19;;;16.31;100.00
20624;BME280;10471;42.736;23.346;2023-05-09T08:18:13;95922.44;;;16.40;100.00
20624;BME280;10471;42.736;23.346;2023-05-09T08:20:38;95921.59;;;16.53;100.00
20624;BME280;10471;42.736;23.346;2023-05-09T08:23:04;95922.41;;;16.53;100.00
20624;BME280;10471;42.736;23.346;2023-05-09T08:25:30;95928.28;;;16.77;100.00
20624;BME280;10471;42.736;23.346;2023-05-09T08:27:55;95928.19;;;17.04;100.00
20624;BME280;10471;42.736;23.346;2023-05-09T08:30:21;95924.78;;;17.25;100.00
20624;BME280;10471;42.736;23.346;2023-05-09T08:32:46;95929.47;;;17.42;100.00
20624;BME280;10471;42.736;23.346;2023-05-09T08:35:11;95928.28;;;17.56;100.00
20624;BME280;10471;42.736;23.346;2023-05-09T08:37:37;95920.78;;;17.58;100.00
20624;BME280;10471;42.736;23.346;2023-05-09T08:40:03;95922.34;;;17.59;100.00
20624;BME280;10471;42.736;23.346;2023-05-09T08:42:35;95929.13;;;17.65;100.00
20624;BME280;10471;42.736;23.346;2023-05-09T08:45:08;95925.72;;;17.73;100.00
20624;BME280;10471;42.736;23.346;2023-05-09T08:47:35;95926.94;;;17.67;100.00
20624;BME280;10471;42.736;23.346;2023-05-09T08:50:02;95930.94;;;17.56;94.61
20624;BME280;10471;42.736;23.346;2023-05-09T08:52:29;95926.22;;;17.53;100.00
20624;BME280;10471;42.736;23.346;2023-05-09T08:54:56;95929.69;;;17.32;100.00
20624;BME280;10471;42.736;23.346;2023-05-09T08:57:21;95922.81;;;17.17;100.00
20624;BME280;10471;42.736;23.346;2023-05-09T08:59:48;95923.66;;;17.05;100.00
20624;BME280;10471;42.736;23.346;2023-05-09T09:02:13;95919.53;;;16.99;100.00
20624;BME280;10471;42.736;23.346;2023-05-09T09:04:39;95922.41;;;16.89;100.00
20624;BME280;10471;42.736;23.346;2023-05-09T09:07:05;95924.50;;;16.92;100.00
20624;BME280;10471;42.736;23.346;2023-05-09T09:09:32;95922.91;;;16.91;100.00
20624;BME280;10471;42.736;23.346;2023-05-09T09:12:01;95920.78;;;17.01;100.00
20624;BME280;10471;42.736;23.346;2023-05-09T09:14:28;95918.94;;;17.02;98.18
20624;BME280;10471;42.736;23.346;2023-05-09T09:16:56;95920.41;;;17.08;98.75
20624;BME280;10471;42.736;23.346;2023-05-09T09:19:26;95912.16;;;17.17;94.15
20624;BME280;10471;42.736;23.346;2023-05-09T09:21:53;95914.94;;;17.12;93.03
20624;BME280;10471;42.736;23.346;2023-05-09T09:24:22;95915.47;;;17.23;97.11
20624;BME280;10471;42.736;23.346;2023-05-09T09:26:49;95914.25;;;17.42;98.75
20624;BME280;10471;42.736;23.346;2023-05-09T09:29:16;95911.81;;;17.54;94.46
20624;BME280;10471;42.736;23.346;2023-05-09T09:31:44;95911.44;;;17.69;95.82
20624;BME280;10471;42.736;23.346;2023-05-09T09:34:11;95913.84;;;17.79;93.60
20624;BME280;10471;42.736;23.346;2023-05-09T09:36:38;95919.69;;;17.89;88.90
20624;BME280;10471;42.736;23.346;2023-05-09T09:39:04;95914.88;;;18.00;87.26
20624;BME280;10471;42.736;23.346;2023-05-09T09:41:34;95910.22;;;18.14;86.22
20624;BME280;10471;42.736;23.346;2023-05-09T09:46:53;95905.91;;;18.35;84.06
20624;BME280;10471;42.736;23.346;2023-05-09T09:49:23;95901.84;;;18.37;83.67
20624;BME280;10471;42.736;23.346;2023-05-09T09:51:53;95905.03;;;18.47;86.91
20624;BME280;10471;42.736;23.346;2023-05-09T09:54:19;95901.56;;;18.55;89.49
20624;BME280;10471;42.736;23.346;2023-05-09T09:56:47;95900.47;;;18.48;92.49
20624;BME280;10471;42.736;23.346;2023-05-09T09:59:16;95903.97;;;18.74;87.56
20624;BME280;10471;42.736;23.346;2023-05-09T10:02:04;95898.16;;;18.80;84.59
20624;BME280;10471;42.736;23.346;2023-05-09T10:04:36;95900.50;;;18.99;83.22
20624;BME280;10471;42.736;23.346;2023-05-09T10:07:03;95904.78;;;19.08;80.85
20624;BME280;10471;42.736;23.346;2023-05-09T10:09:30;95889.69;;;18.95;82.53
20624;BME280;10471;42.736;23.346;2023-05-09T10:12:01;95893.34;;;19.08;83.23
20624;BME280;10471;42.736;23.346;2023-05-09T10:14:30;95889.97;;;19.02;86.19
20624;BME280;10471;42.736;23.346;2023-05-09T10:16:56;95887.59;;;18.50;87.94
20624;BME280;10471;42.736;23.346;2023-05-09T10:19:22;95882.09;;;18.46;87.75
20624;BME280;10471;42.736;23.346;2023-05-09T10:21:54;95881.34;;;18.71;88.46
20624;BME280;10471;42.736;23.346;2023-05-09T10:24:26;95891.72;;;18.98;86.63
20624;BME280;10471;42.736;23.346;2023-05-09T10:26:58;95890.16;;;19.06;84.18
20624;BME280;10471;42.736;23.346;2023-05-09T10:29:26;95887.47;;;18.97;81.59
20624;BME280;10471;42.736;23.346;2023-05-09T10:31:58;95879.44;;;18.89;85.76
20624;BME280;10471;42.736;23.346;2023-05-09T10:34:25;95886.22;;;19.03;82.67
20624;BME280;10471;42.736;23.346;2023-05-09T10:36:52;95886.22;;;18.86;79.83
20624;BME280;10471;42.736;23.346;2023-05-09T10:39:18;95878.81;;;18.75;80.56
20624;BME280;10471;42.736;23.346;2023-05-09T10:41:45;95888.44;;;18.84;84.48
20624;BME280;10471;42.736;23.346;2023-05-09T10:44:13;95883.22;;;19.05;80.43
20624;BME280;10471;42.736;23.346;2023-05-09T10:46:39;95880.41;;;19.01;77.52
20624;BME280;10471;42.736;23.346;2023-05-09T10:49:05;95882.28;;;18.58;85.54
20624;BME280;10471;42.736;23.346;2023-05-09T10:51:31;95878.34;;;18.64;86.77
20624;BME280;10471;42.736;23.346;2023-05-09T10:53:57;95885.41;;;18.05;91.92
20624;BME280;10471;42.736;23.346;2023-05-09T10:56:24;95884.16;;;18.11;93.60
20624;BME280;10471;42.736;23.346;2023-05-09T10:58:51;95886.63;;;17.99;90.75
20624;BME280;10471;42.736;23.346;2023-05-09T11:01:28;95885.50;;;17.61;94.42
20624;BME280;10471;42.736;23.346;2023-05-09T11:03:56;95884.31;;;17.45;100.00
20624;BME280;10471;42.736;23.346;2023-05-09T11:09:32;95885.34;;;17.58;97.25
20624;BME280;10471;42.736;23.346;2023-05-09T11:14:39;95896.13;;;16.74;100.00
20624;BME280;10471;42.736;23.346;2023-05-09T11:17:05;95889.97;;;16.51;100.00
20624;BME280;10471;42.736;23.346;2023-05-09T11:22:11;95885.91;;;16.67;100.00
20624;BME280;10471;42.736;23.346;2023-05-09T11:24:37;95891.16;;;16.59;100.00
20624;BME280;10471;42.736;23.346;2023-05-09T11:27:13;95886.88;;;16.71;100.00
20624;BME280;10471;42.736;23.346;2023-05-09T11:29:48;95886.78;;;16.98;100.00
20624;BME280;10471;42.736;23.346;2023-05-09T11:32:15;95886.91;;;17.15;100.00
20624;BME280;10471;42.736;23.346;2023-05-09T11:34:42;95883.28;;;17.11;99.41
20624;BME280;10471;42.736;23.346;2023-05-09T11:37:10;95882.22;;;16.99;100.00
20624;BME280;10471;42.736;23.346;2023-05-09T11:40:00;95887.09;;;17.18;100.00
20624;BME280;10471;42.736;23.346;2023-05-09T11:42:27;95888.22;;;17.39;100.00
20624;BME280;10471;42.736;23.346;2023-05-09T11:44:54;95890.63;;;17.27;100.00
20624;BME280;10471;42.736;23.346;2023-05-09T11:47:20;95883.84;;;17.43;100.00
20624;BME280;10471;42.736;23.346;2023-05-09T11:49:48;95885.78;;;17.29;98.36
20624;BME280;10471;42.736;23.346;2023-05-09T11:52:15;95891.81;;;17.21;97.90
20624;BME280;10471;42.736;23.346;2023-05-09T11:54:40;95880.84;;;17.01;100.00
20624;BME280;10471;42.736;23.346;2023-05-09T11:57:06;95881.75;;;16.75;100.00
20624;BME280;10471;42.736;23.346;2023-05-09T11:59:33;95878.81;;;16.63;100.00
20624;BME280;10471;42.736;23.346;2023-05-09T12:02:05;95880.50;;;16.59;100.00
20624;BME280;10471;42.736;23.346;2023-05-09T12:04:32;95885.75;;;16.37;100.00
20624;BME280;10471;42.736;23.346;2023-05-09T12:06:58;95886.00;;;16.62;100.00
20624;BME280;10471;42.736;23.346;2023-05-09T12:09:28;95885.94;;;16.54;100.00
20624;BME280;10471;42.736;23.346;2023-05-09T12:11:53;95890.09;;;16.46;100.00
20624;BME280;10471;42.736;23.346;2023-05-09T12:14:26;95883.59;;;16.39;100.00
20624;BME280;10471;42.736;23.346;2023-05-09T12:16:51;95882.97;;;16.55;100.00
20624;BME280;10471;42.736;23.346;2023-05-09T12:19:22;95887.50;;;16.55;100.00
20624;BME280;10471;42.736;23.346;2023-05-09T12:21:47;95883.59;;;16.39;100.00
20624;BME280;10471;42.736;23.346;2023-05-09T12:24:12;95889.41;;;16.14;100.00
20624;BME280;10471;42.736;23.346;2023-05-09T12:26:38;95888.13;;;16.12;100.00
20624;BME280;10471;42.736;23.346;2023-05-09T12:29:04;95888.31;;;16.15;100.00
20624;BME280;10471;42.736;23.346;2023-05-09T12:31:30;95885.47;;;16.12;100.00
20624;BME280;10471;42.736;23.346;2023-05-09T12:33:55;95881.53;;;16.23;100.00
20624;BME280;10471;42.736;23.346;2023-05-09T12:36:21;95887.53;;;16.15;100.00
20624;BME280;10471;42.736;23.346;2023-05-09T12:38:54;95879.56;;;16.28;100.00
20624;BME280;10471;42.736;23.346;2023-05-09T12:41:19;95888.69;;;16.49;100.00
20624;BME280;10471;42.736;23.346;2023-05-09T12:43:47;95876.75;;;16.60;100.00
20624;BME280;10471;42.736;23.346;2023-05-09T12:46:17;95880.00;;;16.57;100.00
20624;BME280;10471;42.736;23.346;2023-05-09T12:48:43;95872.97;;;16.74;100.00
20624;BME280;10471;42.736;23.346;2023-05-09T12:51:08;95877.03;;;16.72;100.00
20624;BME280;10471;42.736;23.346;2023-05-09T12:53:38;95880.72;;;16.84;100.00
20624;BME280;10471;42.736;23.346;2023-05-09T12:56:11;95862.28;;;16.88;100.00